Peter Müller

Chefscout - Heidenheim
7 Nov 2027
Sonntag
Verarbeitung

Persönlichkeit

Anpassungsfähigkeit (6) Ehrgeiz (18) Kontroverse (8) Loyalität (13) Druck (6) Professionalität (12) Fairness (10) Temperament (18)

Profil

Trainerstil Demokratisch
Lizenz Kontinentale A
Entschlossenheit 6
Menschenführung 8
Motivation 12
Disziplin 13
Arbeitszufriedenheit
100%
Ermüdung
0%
Rolle Chefscout
Gehalt 82.5K p/W
Vertrag 14.03.2028

Leistung

Verhalten Gut
Trainingseffektivität
36%
Spielerentwicklung
45%
Verletzungsprävention
60%
Taktische Umsetzung
20%

Aktuell beobachtet

79
Spieler Verein Status Fähigkeit Vertrauen Beobachtet Zuletzt beobachtet Letzte Stimme
Peter Amidu Acquah Asante Kotoko Aktiv 94 / 87 40% 1 30.08.2027 -
Teo Rodríguez Pagano San Lorenzo Verloren 113 / 108 40% 1 30.08.2027 -
Mateo Lizondo Colón Verloren 107 / 117 40% 2 23.08.2027 -
Noah Streit CF Montreal Aktiv 116 / 121 40% 1 23.08.2027 -
Elián De La Cruz San Miguel Aktiv 94 / 97 40% 1 22.08.2027 -
Lukas Gausdal Stabaek Aktiv 94 / 108 40% 1 22.08.2027 -
Henadii Synchuk CF Montreal Aktiv 104 / 109 40% 1 20.08.2027 -
Lautaro Gutiérrez Belgrano Aktiv 113 / 115 40% 1 19.08.2027 -
Lucas Duré Montevideo City Torque Aktiv 87 / 95 40% 1 19.08.2027 -
Juan Diego Perdomo Depor Aktiv 97 / 89 40% 1 17.08.2027 -
Delé Thomas RB Leipzig Aktiv 117 / 135 40% 1 17.08.2027 -
Augusto Bando Ascoli Aktiv 114 / 127 40% 1 16.08.2027 -
Tommaso Ravaglioli AlbinoLeffe Aktiv 95 / 86 40% 1 16.08.2027 -
Lucas Velásquez Huachipato Verloren 102 / 103 40% 1 12.08.2027 -
Demir Xhemalija Luzern Aktiv 103 / 103 40% 1 11.08.2027 -
Morgan Dala New York Red Bulls Aktiv 127 / 108 40% 3 09.08.2027 -
Matías Pérez Alvarado Aktiv 77 / 83 40% 4 07.08.2027 -
Mohamadou Kanté West Ham United Aktiv 111 / 117 40% 1 07.08.2027 -
Charlie Gray Córdoba Aktiv 90 / 106 40% 1 03.08.2027 -
Pablo Suárez Rentistas Aktiv 99 / 112 40% 1 03.08.2027 -
Bryan Caicedo Leones Aktiv 96 / 107 40% 2 02.08.2027 -
Diogo Guzmán Montevideo City Torque Aktiv 113 / 110 40% 3 02.08.2027 -
Luca Raffaelli Instituto Aktiv 111 / 124 40% 2 28.07.2027 -
Martim Cunha Porto Aktiv 104 / 100 40% 2 26.07.2027 -
Vasyl Bundash Metalurh Zaporizhzhia Aktiv 90 / 112 40% 1 26.07.2027 -
Axel Tape Bayer Leverkusen Aktiv 123 / 138 40% 3 20.07.2027 -
Gonçalo Sousa Porto Aktiv 120 / 137 40% 2 19.07.2027 -
Mateo Silvetti New England Revolution Aktiv 114 / 133 40% 2 19.07.2027 -
Kaick FC Dallas Aktiv 118 / 93 40% 1 18.07.2027 -
Elie N'Gatta Sochaux Aktiv 103 / 100 40% 2 17.07.2027 -
Mads Abrahamsen Saturn Aktiv 73 / 108 40% 2 15.07.2027 -
Musa Danjuma Hatayspor Aktiv 91 / 114 40% 1 14.07.2027 -
Juan David Obando Dinamo Barnaul Aktiv 78 / 96 40% 1 12.07.2027 -
Chris Rigg Sunderland Aktiv 134 / 153 40% 1 10.07.2027 -
Alan Coria Villarreal Aktiv 100 / 124 40% 1 09.07.2027 -
Mikhail Ryadno Baltika Aktiv 89 / 117 40% 1 08.07.2027 -
Filipe Gabriel General Caballero Aktiv 108 / 95 40% 1 08.07.2027 -
Wilfred Correa Caracas Aktiv 92 / 107 40% 2 06.07.2027 -
Mateo Durand General Diaz Aktiv 77 / 110 40% 1 05.07.2027 -
Paulo Cardoso Sporting CP Aktiv 95 / 111 40% 2 27.06.2027 -
Borna Knezović Casarano Aktiv 106 / 95 40% 1 27.06.2027 -
Ahmad Lamido Wikki Tourists Aktiv 75 / 73 40% 1 25.06.2027 -
Mohamed Touré Viktoria Plzen Aktiv 94 / 102 40% 1 24.06.2027 -
David González Burgos Aktiv 116 / 124 40% 1 16.06.2027 -
Fabián Correa Barranquilla Aktiv 75 / 84 40% 1 16.06.2027 -
Adson Vasco da Gama Verloren 124 / 124 68% 1 01.06.2027 Befürworten
Wilmar Garcia Cortulua Aktiv 122 / 122 68% 1 01.06.2027 Befürworten
Jellert Van Landschoot Brighton Aktiv 120 / 120 66% 1 01.06.2027 Befürworten
Adrián Parra Udinese Aktiv 117 / 117 67% 1 01.06.2027 Befürworten
Javi Galán Celta Aktiv 137 / 154 40% 2 31.01.2027 -
Maximilian Arnold VfL Wolfsburg Aktiv 134 / 142 40% 2 31.01.2027 -
Christian Kouamé CSKA Moscow Aktiv 129 / 131 40% 1 30.01.2027 -
Francisco González Tijuana Aktiv 125 / 120 40% 2 29.01.2027 -
Lukáš Provod Slavia Prague Aktiv 159 / 140 40% 2 26.01.2027 -
Kevin Velasco Puebla Aktiv 109 / 100 40% 2 25.01.2027 -
Ayman Azhil Borussia Dortmund Aktiv 111 / 131 55% 1 25.01.2027 -
Óliver Monterrey Aktiv 133 / 131 40% 1 25.01.2027 Mehr Infos nötig
Brian Rodríguez Club America Aktiv 121 / 136 40% 1 24.01.2027 -
Franck Surdez Sion Aktiv 128 / 124 40% 1 23.01.2027 -
Davis Keillor-Dunn Wrexham Aktiv 110 / 114 40% 1 21.01.2027 -
Juan-José Perea Zurich Aktiv 115 / 125 40% 2 20.01.2027 -
Lebohang Maboe Kaizer Chiefs Aktiv 109 / 120 40% 1 19.01.2027 -
Darian Maleš Young Boys Aktiv 114 / 120 40% 1 19.01.2027 -
Josias Lukembila Sion Aktiv 114 / 106 40% 1 19.01.2027 -
Duk Atlas Aktiv 130 / 114 40% 2 18.01.2027 -
Pep Biel Monterrey Aktiv 146 / 112 40% 2 17.01.2027 -
Petter Nosa Dahl Rapid Wien Aktiv 131 / 119 40% 1 16.01.2027 -
Aune Heggebø West Bromwich Albion Aktiv 119 / 117 40% 1 16.01.2027 -
Agustín Palavecino Cruz Azul Aktiv 144 / 113 40% 1 16.01.2027 -
Philippe Keny Zurich Aktiv 133 / 106 40% 2 13.01.2027 -
Samuel Essende Young Boys Aktiv 120 / 129 40% 1 13.01.2027 -
Lucas Höler SC Freiburg Aktiv 122 / 139 40% 1 12.01.2027 -
Gonzalo Piovi Cruz Azul Aktiv 143 / 125 40% 1 12.01.2027 -
Carlos Rotondi Cruz Azul Aktiv 120 / 143 40% 1 12.01.2027 -
Daniel Deac Hajduk Split Aktiv 137 / 140 66% 1 11.01.2027 Befürworten
Ignacio Perruzzi San Lorenzo Aktiv 100 / 126 40% 1 26.08.2026 -
Arjan Malić Sturm Graz Aktiv 116 / 131 40% 1 10.08.2026 -
Saël Kumbedi VfL Wolfsburg Aktiv 131 / 147 40% 1 10.08.2026 -
Samuel Marques Grasshopper Aktiv 102 / 109 40% 1 05.08.2026 -